Time;durP1;ratioP1;P1;durP2;ratioP2;P2;SDS_P1;SDS_P2;PMS_P1;PMS_P2;Temp;Humidity;BMP_temperature;BMP_pressure;BME280_temperature;BME280_humidity;BME280_pressure;Samples;Min_cycle;Max_cycle;Signal;HPM_P1;HPM_P2
2022/06/14 00:01:31;;;;;;;1.50;1.40;;;14.50;98.00;;;;;;5055167;28;20483;-69
2022/06/14 00:04:01;;;;;;;1.90;1.53;;;14.50;98.00;;;;;;5054126;28;20461;-69
2022/06/14 00:06:30;;;;;;;2.53;1.57;;;14.60;98.00;;;;;;5055319;28;20840;-69
2022/06/14 00:08:57;;;;;;;3.90;1.70;;;14.60;98.00;;;;;;5054923;28;20994;-68
2022/06/14 00:11:27;;;;;;;2.80;1.90;;;14.60;98.00;;;;;;5055307;28;20897;-69
2022/06/14 00:13:56;;;;;;;2.90;1.70;;;14.40;98.00;;;;;;5053500;28;20470;-68
2022/06/14 00:16:25;;;;;;;2.63;1.60;;;14.10;98.00;;;;;;5055165;28;20487;-70
2022/06/14 00:18:53;;;;;;;2.70;1.60;;;14.10;98.00;;;;;;5053412;28;20989;-67
2022/06/14 00:21:22;;;;;;;1.63;1.47;;;14.00;98.00;;;;;;5054906;28;20469;-68
2022/06/14 00:23:50;;;;;;;2.10;1.40;;;13.90;98.00;;;;;;5055043;28;20465;-68
2022/06/14 00:26:17;;;;;;;3.63;1.70;;;13.80;98.00;;;;;;5054989;28;20472;-70
2022/06/14 00:28:46;;;;;;;3.20;1.83;;;13.70;98.00;;;;;;5054755;28;20457;-69
2022/06/14 00:31:16;;;;;;;2.73;1.53;;;13.70;98.00;;;;;;5054806;28;20455;-68
2022/06/14 00:33:44;;;;;;;3.00;1.87;;;13.70;98.00;;;;;;5054816;28;20548;-68
2022/06/14 00:36:23;;;;;;;1.83;1.60;;;13.60;98.00;;;;;;5054704;28;20467;-68
2022/06/14 00:38:51;;;;;;;2.90;1.70;;;13.70;98.00;;;;;;5054339;28;20458;-68
2022/06/14 00:41:29;;;;;;;1.73;1.43;;;13.70;98.00;;;;;;5054510;28;20466;-69
2022/06/14 00:43:57;;;;;;;5.40;1.57;;;13.70;98.00;;;;;;5053292;28;20515;-68
2022/06/14 00:46:28;;;;;;;1.97;1.60;;;13.60;98.00;;;;;;5054517;28;20467;-68
2022/06/14 00:49:02;;;;;;;2.47;1.60;;;13.60;98.00;;;;;;5054384;28;20468;-68
2022/06/14 00:51:36;;;;;;;1.63;1.40;;;13.70;98.00;;;;;;5054495;28;20465;-69
2022/06/14 00:54:11;;;;;;;2.50;1.60;;;13.70;98.00;;;;;;5053300;28;20812;-68
2022/06/14 00:56:43;;;;;;;1.30;1.20;;;13.70;98.00;;;;;;5054407;28;20487;-68
2022/06/14 00:59:14;;;;;;;2.67;1.67;;;13.70;98.00;;;;;;5053102;28;20549;-69
2022/06/14 01:01:44;;;;;;;2.57;1.80;;;13.80;98.00;;;;;;5053247;28;20467;-68
2022/06/14 01:04:15;;;;;;;2.60;1.80;;;13.90;98.00;;;;;;5054068;28;20962;-68
2022/06/14 01:07:01;;;;;;;1.83;1.70;;;13.90;98.00;;;;;;5054023;28;21072;-68
2022/06/14 01:09:36;;;;;;;1.90;1.53;;;13.90;98.00;;;;;;5053506;28;20509;-68
2022/06/14 01:12:08;;;;;;;2.00;1.40;;;13.60;98.00;;;;;;5052711;28;20462;-69
2022/06/14 01:14:43;;;;;;;2.60;1.53;;;13.60;98.00;;;;;;5053949;28;20546;-69
2022/06/14 01:17:13;;;;;;;1.90;1.40;;;13.70;98.00;;;;;;5052250;28;20535;-68
2022/06/14 01:19:41;;;;;;;2.10;1.47;;;13.50;98.00;;;;;;5052523;28;20461;-68
2022/06/14 01:22:28;;;;;;;2.70;1.87;;;13.40;98.00;;;;;;5053713;28;20465;-68
2022/06/14 01:24:56;;;;;;;1.60;1.30;;;13.30;98.00;;;;;;5053773;28;20481;-69
2022/06/14 01:27:25;;;;;;;2.53;1.90;;;13.30;98.00;;;;;;5053725;28;20796;-68
2022/06/14 01:30:00;;;;;;;1.40;1.40;;;13.50;98.00;;;;;;5053781;28;20452;-69
2022/06/14 01:32:31;;;;;;;1.40;1.40;;;13.50;98.00;;;;;;5053507;28;20460;-69
2022/06/14 01:35:01;;;;;;;1.80;1.50;;;13.50;98.00;;;;;;5052333;28;20455;-68
2022/06/14 01:37:30;;;;;;;2.13;1.60;;;13.60;98.00;;;;;;5053669;28;20487;-68
2022/06/14 01:39:59;;;;;;;1.50;1.40;;;13.70;98.00;;;;;;5053294;28;20472;-68
2022/06/14 01:42:38;;;;;;;1.60;1.30;;;13.70;98.00;;;;;;5053636;28;20457;-69
2022/06/14 01:45:11;;;;;;;1.50;1.47;;;13.70;98.00;;;;;;5053404;28;20464;-68
2022/06/14 01:48:00;;;;;;;2.60;1.73;;;13.80;98.00;;;;;;5053517;28;20452;-68
2022/06/14 01:53:31;;;;;;;1.93;1.37;;;13.40;98.00;;;;;;5053442;28;20467;-68
2022/06/14 01:56:07;;;;;;;1.50;1.50;;;13.20;98.00;;;;;;5053465;28;20453;-69
2022/06/14 01:58:43;;;;;;;1.60;1.47;;;13.00;98.00;;;;;;5053068;28;21005;-70
2022/06/14 02:01:18;;;;;;;3.07;1.80;;;12.90;98.00;;;;;;5052948;28;20453;-70
2022/06/14 02:06:41;;;;;;;1.80;1.37;;;12.80;98.00;;;;;;5053006;28;20590;-68
2022/06/14 02:09:16;;;;;;;1.93;1.77;;;13.00;98.00;;;;;;5052777;28;20472;-68
2022/06/14 02:11:43;;;;;;;2.30;1.93;;;13.20;98.00;;;;;;5052865;28;20457;-69
2022/06/14 02:14:20;;;;;;;1.70;1.60;;;13.20;98.00;;;;;;5052690;28;20454;-67
2022/06/14 02:16:54;;;;;;;1.83;1.37;;;13.20;98.00;;;;;;5052624;28;20466;-69
2022/06/14 02:19:28;;;;;;;1.20;1.20;;;13.00;98.00;;;;;;5051475;28;20498;-68
2022/06/14 02:21:59;;;;;;;1.53;1.53;;;12.90;98.00;;;;;;5051550;28;20476;-68
2022/06/14 02:24:31;;;;;;;2.07;1.47;;;12.80;98.00;;;;;;5035261;28;20495;-68
2022/06/14 02:27:04;;;;;;;1.67;1.40;;;12.80;98.00;;;;;;5052686;28;20460;-70
2022/06/14 02:29:35;;;;;;;6.97;2.20;;;12.70;98.00;;;;;;5052693;28;20830;-68
2022/06/14 02:32:04;;;;;;;2.03;1.47;;;12.70;98.00;;;;;;5052506;28;20465;-69
2022/06/14 02:34:37;;;;;;;1.87;1.40;;;12.70;98.00;;;;;;5052576;28;20921;-68
2022/06/14 02:37:10;;;;;;;5.37;1.80;;;12.50;98.00;;;;;;5052427;28;20509;-68
2022/06/14 02:39:44;;;;;;;1.90;1.50;;;12.50;98.00;;;;;;5052343;28;20462;-69
2022/06/14 02:42:18;;;;;;;2.03;1.53;;;12.40;98.00;;;;;;5052477;28;20792;-68
2022/06/14 02:44:51;;;;;;;1.70;1.50;;;12.40;98.00;;;;;;5052392;28;20457;-68
2022/06/14 02:47:23;;;;;;;2.07;1.70;;;12.40;98.00;;;;;;5052238;28;20462;-69
2022/06/14 02:49:55;;;;;;;2.90;1.70;;;12.30;98.00;;;;;;5052252;28;20467;-68
2022/06/14 02:52:26;;;;;;;1.40;1.23;;;12.30;98.00;;;;;;5052464;28;20454;-68
2022/06/14 02:55:00;;;;;;;2.13;1.87;;;12.30;98.00;;;;;;5052182;28;20946;-68
2022/06/14 02:57:34;;;;;;;2.70;1.50;;;12.30;98.00;;;;;;5052274;28;20492;-69
2022/06/14 03:00:11;;;;;;;2.13;1.60;;;12.30;98.00;;;;;;5052217;28;20451;-69
2022/06/14 03:02:44;;;;;;;1.60;1.47;;;12.40;98.00;;;;;;5051836;28;20463;-68
2022/06/14 03:05:18;;;;;;;1.97;1.47;;;12.50;98.00;;;;;;5051957;28;20458;-70
2022/06/14 03:07:50;;;;;;;2.90;1.73;;;12.40;98.00;;;;;;5051930;28;20469;-68
2022/06/14 03:10:20;;;;;;;1.87;1.50;;;12.30;98.00;;;;;;5051894;28;20493;-69
2022/06/14 03:12:54;;;;;;;2.10;1.47;;;12.10;98.00;;;;;;5050527;28;20578;-68
2022/06/14 03:15:31;;;;;;;2.50;1.50;;;12.10;98.00;;;;;;5051714;28;20461;-68
2022/06/14 03:18:09;;;;;;;2.40;1.60;;;12.20;98.00;;;;;;5051729;28;20486;-69
2022/06/14 03:20:56;;;;;;;5.00;2.17;;;12.10;98.00;;;;;;5051782;28;20515;-68
2022/06/14 03:23:33;;;;;;;7.93;2.30;;;12.10;98.00;;;;;;5051893;28;20459;-69
2022/06/14 03:26:10;;;;;;;2.10;1.60;;;12.20;98.00;;;;;;5056320;28;20450;-67
2022/06/14 03:28:42;;;;;;;2.23;1.83;;;12.10;98.00;;;;;;5246058;22;20501;-69
2022/06/14 03:31:15;;;;;;;2.27;1.97;;;12.10;98.00;;;;;;5036407;28;20451;-68
2022/06/14 03:33:47;;;;;;;1.60;1.50;;;12.00;98.00;;;;;;5038210;28;20466;-69
2022/06/14 03:36:15;;;;;;;1.50;1.33;;;12.00;98.00;;;;;;5037147;28;20447;-68
2022/06/14 03:38:47;;;;;;;1.90;1.33;;;12.10;98.00;;;;;;5038116;28;20478;-68
2022/06/14 03:41:19;;;;;;;2.40;1.70;;;12.10;98.00;;;;;;5038422;28;20458;-69
2022/06/14 03:43:50;;;;;;;1.30;1.30;;;12.20;98.00;;;;;;5038437;28;20506;-68
2022/06/14 03:46:28;;;;;;;1.70;1.60;;;12.30;98.00;;;;;;5038297;28;20466;-68
2022/06/14 03:49:00;;;;;;;1.43;1.37;;;12.20;98.00;;;;;;5038263;28;20470;-67
2022/06/14 03:51:38;;;;;;;1.77;1.40;;;12.20;98.00;;;;;;5038627;28;20801;-69
2022/06/14 03:54:18;;;;;;;1.57;1.40;;;12.20;98.00;;;;;;5038549;28;20466;-70
2022/06/14 03:56:59;;;;;;;2.27;1.50;;;12.10;98.00;;;;;;5038392;28;20471;-68
2022/06/14 03:59:51;;;;;;;2.20;1.63;;;12.20;98.00;;;;;;5038075;28;20481;-68
2022/06/14 04:02:52;;;;;;;1.93;1.67;;;12.40;98.00;;;;;;5038137;28;20459;-68
2022/06/14 04:05:20;;;;;;;2.73;1.50;;;12.40;98.00;;;;;;5037784;28;20548;-68
2022/06/14 04:07:53;;;;;;;1.87;1.50;;;12.40;98.00;;;;;;5037984;28;20476;-68
2022/06/14 04:10:29;;;;;;;2.80;1.60;;;12.30;98.00;;;;;;5038191;28;20920;-68
2022/06/14 04:13:09;;;;;;;1.93;1.67;;;12.30;98.00;;;;;;5037840;28;20459;-69
2022/06/14 04:15:43;;;;;;;1.87;1.67;;;12.20;98.00;;;;;;5036766;28;20455;-68
2022/06/14 04:18:36;;;;;;;1.40;1.10;;;12.30;98.00;;;;;;5037810;28;20483;-68
2022/06/14 04:21:12;;;;;;;1.90;1.70;;;12.50;98.00;;;;;;5037925;28;20937;-70
2022/06/14 04:23:47;;;;;;;2.50;1.67;;;12.30;98.00;;;;;;5037949;28;20466;-69
2022/06/14 04:26:31;;;;;;;2.07;1.60;;;12.20;98.00;;;;;;5037716;28;20479;-68
2022/06/14 04:29:05;;;;;;;1.90;1.73;;;12.20;98.00;;;;;;5037573;28;20470;-68
2022/06/14 04:31:39;;;;;;;3.47;1.97;;;12.20;98.00;;;;;;5037870;28;20455;-69
2022/06/14 04:34:12;;;;;;;1.63;1.50;;;12.30;98.00;;;;;;5037750;28;20464;-68
2022/06/14 04:36:44;;;;;;;1.30;1.30;;;12.40;98.00;;;;;;5034968;28;20455;-68
2022/06/14 04:39:16;;;;;;;2.40;1.60;;;12.60;98.00;;;;;;5033432;28;20500;-69
2022/06/14 04:41:49;;;;;;;5.30;1.80;;;12.90;98.00;;;;;;5034875;28;20959;-68
2022/06/14 04:44:24;;;;;;;1.50;1.27;;;13.20;98.00;;;;;;5034547;28;20491;-68
2022/06/14 04:46:59;;;;;;;1.60;1.37;;;13.30;98.00;;;;;;5034837;28;20465;-69
2022/06/14 04:49:32;;;;;;;2.13;1.57;;;13.40;98.00;;;;;;5034893;28;20451;-69
2022/06/14 04:52:05;;;;;;;2.03;1.57;;;13.40;98.00;;;;;;5034760;28;20461;-69
2022/06/14 04:54:40;;;;;;;3.90;2.53;;;13.60;98.00;;;;;;5034815;28;20779;-68
2022/06/14 04:57:12;;;;;;;2.27;1.37;;;13.70;98.00;;;;;;5034498;28;20487;-69
2022/06/14 04:59:46;;;;;;;2.00;1.70;;;13.80;98.00;;;;;;5034165;28;21037;-68
2022/06/14 05:02:19;;;;;;;1.73;1.70;;;13.80;98.00;;;;;;5033036;28;20461;-70
2022/06/14 05:04:51;;;;;;;9.53;1.73;;;13.90;98.00;;;;;;5034125;28;20464;-69
2022/06/14 05:07:21;;;;;;;2.30;1.63;;;14.00;98.00;;;;;;5034057;28;20472;-69
2022/06/14 05:10:01;;;;;;;1.90;1.50;;;13.90;98.00;;;;;;5034142;28;20466;-69
2022/06/14 05:12:33;;;;;;;2.30;1.60;;;13.90;98.00;;;;;;5034136;28;20456;-68
2022/06/14 05:15:06;;;;;;;2.00;1.50;;;14.00;98.00;;;;;;5033931;28;20472;-68
2022/06/14 05:17:38;;;;;;;2.17;1.77;;;14.10;98.00;;;;;;5033841;28;20983;-68
2022/06/14 05:20:11;;;;;;;2.00;1.67;;;14.20;98.00;;;;;;5033762;28;21086;-69
2022/06/14 05:22:42;;;;;;;2.53;1.70;;;14.30;98.00;;;;;;5034024;28;20461;-69
2022/06/14 05:25:11;;;;;;;4.03;2.30;;;14.30;98.00;;;;;;5033780;28;20654;-70
2022/06/14 05:27:50;;;;;;;2.47;2.30;;;14.40;98.00;;;;;;5032534;28;20461;-69
2022/06/14 05:30:35;;;;;;;2.47;1.47;;;14.40;98.00;;;;;;5033623;28;20472;-69
2022/06/14 05:33:09;;;;;;;2.10;1.83;;;14.40;98.00;;;;;;5033696;28;20457;-69
2022/06/14 05:35:40;;;;;;;4.47;1.90;;;14.50;98.00;;;;;;5033799;28;20485;-69
2022/06/14 05:38:30;;;;;;;2.90;1.87;;;14.50;98.00;;;;;;5033489;28;21002;-69
2022/06/14 05:41:02;;;;;;;1.93;1.90;;;14.60;98.00;;;;;;5033751;28;20543;-70
2022/06/14 05:43:32;;;;;;;3.17;1.80;;;14.70;98.00;;;;;;5033692;28;20462;-69
2022/06/14 05:46:07;;;;;;;3.70;1.73;;;14.80;98.00;;;;;;5033386;28;20474;-70
2022/06/14 05:48:40;;;;;;;2.67;1.60;;;14.90;98.00;;;;;;5033225;28;20490;-69
2022/06/14 05:51:11;;;;;;;3.70;2.03;;;15.00;98.00;;;;;;5033519;28;20466;-69
2022/06/14 05:53:42;;;;;;;3.83;1.80;;;15.00;98.00;;;;;;5033854;28;20483;-69
2022/06/14 05:56:16;;;;;;;2.30;1.90;;;15.10;98.00;;;;;;5033507;28;20818;-69
2022/06/14 05:58:50;;;;;;;3.93;2.00;;;15.20;98.00;;;;;;5033049;28;20497;-69
2022/06/14 06:01:22;;;;;;;3.50;2.20;;;15.30;98.00;;;;;;5033080;28;20454;-69
2022/06/14 06:03:55;;;;;;;2.07;1.67;;;15.30;98.00;;;;;;5033253;28;20515;-69
2022/06/14 06:06:26;;;;;;;3.60;1.90;;;15.40;98.00;;;;;;5033120;28;20459;-69
2022/06/14 06:08:58;;;;;;;1.90;1.80;;;15.30;98.00;;;;;;5032924;28;20463;-69
2022/06/14 06:11:32;;;;;;;2.97;1.93;;;15.50;98.00;;;;;;5032992;28;20460;-69
2022/06/14 06:14:06;;;;;;;2.40;1.70;;;15.50;98.00;;;;;;5032460;28;20900;-69
2022/06/14 06:16:40;;;;;;;5.47;2.00;;;15.70;98.00;;;;;;5032835;28;20473;-69
2022/06/14 06:19:12;;;;;;;3.27;2.17;;;15.80;98.00;;;;;;5032565;28;20490;-71
2022/06/14 06:21:49;;;;;;;3.10;2.37;;;15.80;98.00;;;;;;5032758;28;21164;-74
2022/06/14 06:24:21;;;;;;;3.40;2.07;;;15.80;98.00;;;;;;5032726;28;20469;-73
2022/06/14 06:26:53;;;;;;;2.70;1.90;;;16.00;98.00;;;;;;5032640;28;20462;-74
2022/06/14 06:29:26;;;;;;;4.33;2.73;;;16.10;98.00;;;;;;5032446;28;20473;-74
2022/06/14 06:31:55;;;;;;;3.90;2.00;;;16.20;98.00;;;;;;5032692;28;20870;-70
2022/06/14 06:34:23;;;;;;;2.60;1.87;;;16.30;98.00;;;;;;5032517;28;20466;-71
2022/06/14 06:36:59;;;;;;;3.17;2.07;;;16.30;98.00;;;;;;5032847;28;20455;-73
2022/06/14 06:39:43;;;;;;;4.73;1.97;;;16.40;98.00;;;;;;5032454;28;20497;-72
2022/06/14 06:42:14;;;;;;;2.73;1.90;;;16.60;98.00;;;;;;5032461;28;20458;-71
2022/06/14 06:44:51;;;;;;;1.77;1.70;;;16.70;98.00;;;;;;5032455;28;20463;-74
2022/06/14 06:47:29;;;;;;;2.20;1.60;;;16.70;98.00;;;;;;5032225;28;20462;-72
2022/06/14 06:50:11;;;;;;;2.03;1.83;;;16.80;98.00;;;;;;5032484;28;20516;-71
2022/06/14 06:52:47;;;;;;;2.47;2.23;;;16.80;98.00;;;;;;5032537;28;20933;-72
2022/06/14 06:55:19;;;;;;;3.93;2.30;;;17.00;98.00;;;;;;5032440;28;20548;-74
2022/06/14 06:57:50;;;;;;;2.03;1.70;;;17.00;98.00;;;;;;5032214;28;20458;-71
2022/06/14 07:00:20;;;;;;;4.00;2.33;;;17.10;98.00;;;;;;5030521;28;20504;-73
2022/06/14 07:02:52;;;;;;;2.33;1.90;;;17.20;98.00;;;;;;5032394;28;20979;-71
2022/06/14 07:05:20;;;;;;;4.07;2.40;;;17.40;98.00;;;;;;5032270;28;20481;-72
2022/06/14 07:08:00;;;;;;;2.50;2.10;;;17.60;98.00;;;;;;5031804;28;20463;-73
2022/06/14 07:10:34;;;;;;;2.60;2.00;;;17.70;98.00;;;;;;5032050;28;20457;-72
2022/06/14 07:13:04;;;;;;;2.40;1.73;;;17.90;98.00;;;;;;5032062;28;20530;-71
2022/06/14 07:15:36;;;;;;;3.00;1.97;;;17.90;98.00;;;;;;5032045;28;20828;-72
2022/06/14 07:18:20;;;;;;;2.60;1.73;;;18.10;98.00;;;;;;5032034;28;20462;-70
2022/06/14 07:20:57;;;;;;;3.03;2.00;;;18.20;98.00;;;;;;5031835;28;20462;-72
2022/06/14 07:23:32;;;;;;;3.73;2.37;;;18.30;98.00;;;;;;5030636;28;20478;-73
2022/06/14 07:26:07;;;;;;;2.57;2.00;;;18.50;98.00;;;;;;5030751;28;20476;-71
2022/06/14 07:28:42;;;;;;;4.20;2.97;;;18.60;98.00;;;;;;5028774;28;20470;-73
2022/06/14 07:31:14;;;;;;;3.77;2.33;;;18.80;98.00;;;;;;5240242;22;20493;-72
2022/06/14 07:33:43;;;;;;;6.73;2.60;;;19.00;98.00;;;;;;5049534;28;20458;-73
2022/06/14 07:36:14;;;;;;;3.50;2.57;;;19.20;98.00;;;;;;5051736;28;20452;-71
2022/06/14 07:38:50;;;;;;;4.00;2.50;;;19.30;98.00;;;;;;5067558;28;20487;-72
2022/06/14 07:41:26;;;;;;;4.80;2.00;;;19.50;97.90;;;;;;5052504;28;20567;-70
2022/06/14 07:44:01;;;;;;;2.40;2.03;;;19.60;97.80;;;;;;5064201;28;20465;-71
2022/06/14 07:46:38;;;;;;;3.30;2.20;;;19.70;97.20;;;;;;5059191;28;20471;-69
2022/06/14 07:49:12;;;;;;;3.53;1.87;;;19.70;96.80;;;;;;5054787;28;20456;-68
2022/06/14 07:51:45;;;;;;;5.10;2.67;;;19.80;97.60;;;;;;5055281;28;20510;-70
2022/06/14 07:54:21;;;;;;;2.47;2.07;;;19.90;96.50;;;;;;5066392;28;20460;-60
2022/06/14 07:57:00;;;;;;;3.30;2.10;;;20.10;97.10;;;;;;5054725;28;20461;-61
2022/06/14 07:59:34;;;;;;;3.67;2.47;;;20.20;96.20;;;;;;5054459;28;20846;-61
2022/06/14 08:02:16;;;;;;;2.90;2.27;;;20.40;97.40;;;;;;5061222;28;20993;-64
2022/06/14 08:04:49;;;;;;;3.30;2.37;;;20.60;95.10;;;;;;5055774;28;20461;-61
2022/06/14 08:07:25;;;;;;;5.67;2.83;;;20.80;96.60;;;;;;5059231;28;20472;-61
2022/06/14 08:09:59;;;;;;;3.50;2.03;;;20.90;93.30;;;;;;5059349;28;20467;-61
2022/06/14 08:12:35;;;;;;;3.33;2.60;;;21.10;94.60;;;;;;5066822;28;20534;-61
2022/06/14 08:15:08;;;;;;;3.37;1.83;;;21.20;91.10;;;;;;5052933;28;20468;-61
2022/06/14 08:17:41;;;;;;;6.23;2.20;;;21.20;91.80;;;;;;5067177;28;20459;-61
2022/06/14 08:20:24;;;;;;;3.33;2.27;;;21.30;94.00;;;;;;5061706;28;21087;-61
2022/06/14 08:22:55;;;;;;;3.67;2.30;;;21.50;91.10;;;;;;5062623;28;20510;-61
2022/06/14 08:25:27;;;;;;;3.80;2.87;;;21.50;90.40;;;;;;5053838;28;20465;-61
2022/06/14 08:28:02;;;;;;;2.90;2.10;;;21.70;91.30;;;;;;5054136;28;20461;-70
2022/06/14 08:30:34;;;;;;;5.00;2.50;;;21.90;91.90;;;;;;5061602;28;20476;-71
2022/06/14 08:33:08;;;;;;;4.37;2.47;;;22.10;90.10;;;;;;5057150;28;20458;-71
2022/06/14 08:35:42;;;;;;;3.23;2.40;;;22.20;92.10;;;;;;5060919;28;20955;-70
2022/06/14 08:38:14;;;;;;;4.13;2.27;;;22.20;88.50;;;;;;5052762;28;20481;-71
2022/06/14 08:40:55;;;;;;;4.13;2.30;;;22.30;88.00;;;;;;5052898;28;20497;-71
2022/06/14 08:43:27;;;;;;;4.77;2.40;;;22.40;88.50;;;;;;5052214;28;20457;-69
2022/06/14 08:46:17;;;;;;;3.67;2.37;;;22.40;86.00;;;;;;5060069;28;20476;-71
2022/06/14 08:48:50;;;;;;;3.10;2.10;;;22.40;89.90;;;;;;5061294;28;20474;-68
2022/06/14 08:51:30;;;;;;;3.50;2.23;;;22.60;86.70;;;;;;5051525;28;20465;-67
2022/06/14 08:54:26;;;;;;;3.10;2.10;;;22.70;88.90;;;;;;5054091;28;20457;-61
2022/06/14 08:57:24;;;;;;;25.37;6.63;;;22.70;90.40;;;;;;5062226;28;20555;-63
2022/06/14 09:00:12;;;;;;;65.00;15.00;;;22.90;92.00;;;;;;5062020;28;20496;-67
2022/06/14 09:03:18;;;;;;;6.10;2.63;;;23.10;87.90;;;;;;5053018;28;20461;-66
2022/06/14 09:06:00;;;;;;;267.77;49.57;;;23.20;87.10;;;;;;5054724;28;20461;-68
2022/06/14 09:08:54;;;;;;;102.83;22.80;;;23.40;87.20;;;;;;5068388;28;20449;-69
2022/06/14 09:11:57;;;;;;;239.03;52.67;;;23.50;86.70;;;;;;5044825;28;20960;-66
2022/06/14 09:15:05;;;;;;;37.63;9.97;;;23.70;85.30;;;;;;5061726;28;20460;-69
2022/06/14 09:18:07;;;;;;;5.00;3.63;;;23.90;86.80;;;;;;5042284;28;20470;-67
2022/06/14 09:20:39;;;;;;;3.73;2.30;;;24.00;84.10;;;;;;5049418;28;20492;-70
2022/06/14 09:23:29;;;;;;;13.90;4.23;;;24.10;83.70;;;;;;5059621;28;20465;-71
2022/06/14 09:26:27;;;;;;;9.17;4.10;;;24.10;81.90;;;;;;5061052;28;20461;-71
2022/06/14 09:29:31;;;;;;;4.37;2.53;;;24.00;83.40;;;;;;5049043;28;20810;-67
2022/06/14 09:35:49;;;;;;;4.77;2.77;;;24.10;80.70;;;;;;5043158;28;20466;-61
2022/06/14 09:38:38;;;;;;;3.10;2.13;;;24.20;82.10;;;;;;5049063;28;20472;-62
2022/06/14 09:41:22;;;;;;;4.33;2.33;;;24.20;81.50;;;;;;5059240;28;20518;-60
2022/06/14 09:44:40;;;;;;;7.83;2.37;;;24.20;80.10;;;;;;5054194;28;20456;-65
2022/06/14 09:47:40;;;;;;;2.60;2.20;;;24.30;80.10;;;;;;4999616;28;20465;-64
2022/06/14 09:50:43;;;;;;;4.40;2.20;;;24.40;80.10;;;;;;5053072;28;20464;-64
2022/06/14 09:53:55;;;;;;;2.83;2.13;;;24.50;81.00;;;;;;5058000;28;20456;-65
2022/06/14 09:56:49;;;;;;;3.43;2.40;;;24.60;80.10;;;;;;5052869;28;20466;-60
2022/06/14 09:59:44;;;;;;;4.57;2.53;;;24.80;80.00;;;;;;5050757;28;20588;-74
2022/06/14 10:02:21;;;;;;;2.80;2.20;;;24.80;78.20;;;;;;5060857;28;22429;-74
2022/06/14 10:05:19;;;;;;;4.43;2.30;;;24.70;77.20;;;;;;5054597;28;20487;-66
2022/06/14 10:08:14;;;;;;;3.20;2.17;;;24.70;79.20;;;;;;5059063;28;20544;-61
2022/06/14 10:10:55;;;;;;;4.03;2.50;;;24.90;81.90;;;;;;5050586;28;20446;-68
2022/06/14 10:13:47;;;;;;;3.57;2.13;;;25.00;79.50;;;;;;5050813;28;20484;-69
2022/06/14 10:16:27;;;;;;;4.27;2.57;;;25.20;79.70;;;;;;5064813;28;20468;-68
2022/06/14 10:19:14;;;;;;;2.73;2.20;;;25.30;79.00;;;;;;5060022;28;20468;-68
2022/06/14 10:21:47;;;;;;;3.30;2.20;;;25.40;79.50;;;;;;5058982;28;20468;-68
2022/06/14 10:24:22;;;;;;;3.20;2.30;;;25.50;77.40;;;;;;5052140;28;20457;-69
2022/06/14 10:30:13;;;;;;;3.10;2.27;;;25.50;77.50;;;;;;5064759;28;20455;-69
2022/06/14 10:33:15;;;;;;;3.83;2.33;;;25.70;78.00;;;;;;5050035;28;20466;-68
2022/06/14 10:35:50;;;;;;;3.47;2.20;;;25.70;77.40;;;;;;5052669;28;20460;-68
2022/06/14 10:38:53;;;;;;;3.10;2.33;;;25.90;76.90;;;;;;5054999;28;20493;-68
2022/06/14 10:41:39;;;;;;;6.40;2.00;;;26.00;74.10;;;;;;5059460;28;20500;-69
2022/06/14 10:44:21;;;;;;;3.33;2.37;;;26.10;74.70;;;;;;5048366;28;20539;-69
2022/06/14 10:46:56;;;;;;;2.77;1.83;;;26.20;75.30;;;;;;5048749;28;20458;-69
2022/06/14 10:49:54;;;;;;;2.67;2.00;;;26.30;74.00;;;;;;5058089;28;20450;-69
2022/06/14 10:52:50;;;;;;;3.57;2.73;;;26.40;76.60;;;;;;5068848;28;20883;-69
2022/06/14 10:55:45;;;;;;;5.00;2.10;;;26.60;73.70;;;;;;5056367;28;20461;-68
2022/06/14 10:58:38;;;;;;;2.80;2.13;;;26.80;72.30;;;;;;5064608;28;20461;-68
2022/06/14 11:01:19;;;;;;;3.77;2.13;;;26.90;72.10;;;;;;5045820;28;20489;-70
2022/06/14 11:03:56;;;;;;;2.53;2.17;;;27.10;70.40;;;;;;5058852;28;20456;-69
2022/06/14 11:06:57;;;;;;;2.23;1.83;;;27.20;71.40;;;;;;5059174;28;20456;-69
2022/06/14 11:09:37;;;;;;;2.83;1.87;;;27.20;70.70;;;;;;5056106;28;20456;-69
2022/06/14 11:12:22;;;;;;;2.70;1.83;;;27.20;70.10;;;;;;5067871;28;20464;-61
2022/06/14 11:15:01;;;;;;;3.13;2.00;;;27.20;71.40;;;;;;5041321;28;20458;-61
2022/06/14 11:17:43;;;;;;;2.70;1.97;;;27.30;71.30;;;;;;5059677;28;20469;-61
2022/06/14 11:20:27;;;;;;;2.83;2.13;;;27.40;69.70;;;;;;5063994;28;20493;-61
2022/06/14 11:23:03;;;;;;;3.80;2.13;;;27.60;70.80;;;;;;5055252;28;20463;-61
2022/06/14 11:25:37;;;;;;;3.30;2.03;;;27.80;68.40;;;;;;5050616;28;20465;-61
2022/06/14 11:28:15;;;;;;;3.00;2.30;;;27.90;68.60;;;;;;5057393;28;20550;-61
2022/06/14 11:30:49;;;;;;;3.57;1.97;;;28.10;67.50;;;;;;5068345;28;20865;-63
2022/06/14 11:33:30;;;;;;;3.40;2.43;;;28.10;69.10;;;;;;5057122;28;20466;-62
2022/06/14 11:36:20;;;;;;;2.50;2.03;;;28.10;69.90;;;;;;5049597;28;20453;-61
2022/06/14 11:39:05;;;;;;;3.27;2.50;;;28.40;68.60;;;;;;5061997;28;20466;-61
2022/06/14 11:41:41;;;;;;;2.60;2.13;;;28.40;68.10;;;;;;5065035;28;20492;-61
2022/06/14 11:44:23;;;;;;;6.23;2.20;;;28.30;67.90;;;;;;5066752;28;20970;-61
2022/06/14 11:47:01;;;;;;;3.10;2.33;;;28.20;68.10;;;;;;5051376;28;20464;-62
2022/06/14 11:49:37;;;;;;;3.07;2.10;;;28.10;64.60;;;;;;5051124;28;20465;-62
2022/06/14 11:52:18;;;;;;;3.37;2.30;;;28.20;67.90;;;;;;5053491;28;20461;-61
2022/06/14 11:54:57;;;;;;;2.90;2.00;;;28.40;70.90;;;;;;5054844;28;20544;-61
2022/06/14 11:57:31;;;;;;;3.00;2.30;;;28.60;69.00;;;;;;5055339;28;20970;-61
2022/06/14 12:00:21;;;;;;;4.43;2.70;;;28.80;68.90;;;;;;5055581;28;20492;-62
2022/06/14 12:02:59;;;;;;;3.20;2.30;;;28.90;68.90;;;;;;5055632;28;20449;-63
2022/06/14 12:05:40;;;;;;;3.27;2.10;;;29.10;65.70;;;;;;5055507;28;20464;-66
2022/06/14 12:08:29;;;;;;;2.60;2.13;;;29.30;66.50;;;;;;5054265;28;20481;-66
2022/06/14 12:11:08;;;;;;;2.73;1.93;;;29.40;64.80;;;;;;5052819;28;20457;-64
2022/06/14 12:14:02;;;;;;;2.77;2.10;;;29.60;67.00;;;;;;5055193;28;20545;-63
2022/06/14 12:16:38;;;;;;;4.03;2.33;;;29.80;65.70;;;;;;5054949;28;20465;-64
2022/06/14 12:19:09;;;;;;;3.73;1.73;;;29.70;62.90;;;;;;5054778;28;20453;-64
2022/06/14 12:21:45;;;;;;;2.47;2.13;;;29.90;62.20;;;;;;5054932;28;20481;-67
2022/06/14 12:24:17;;;;;;;3.60;2.47;;;30.10;61.50;;;;;;5054762;28;20457;-66
2022/06/14 12:26:49;;;;;;;3.07;2.10;;;30.20;64.20;;;;;;5054736;28;20469;-64
2022/06/14 12:29:21;;;;;;;3.10;2.30;;;30.40;62.80;;;;;;5054480;28;20462;-68
2022/06/14 12:32:06;;;;;;;4.67;2.70;;;30.60;61.70;;;;;;5054239;28;20469;-64
2022/06/14 12:34:40;;;;;;;3.57;2.40;;;30.50;64.20;;;;;;5054533;28;20457;-66
2022/06/14 12:37:18;;;;;;;3.67;2.60;;;30.40;63.80;;;;;;5054376;28;20487;-67
2022/06/14 12:39:54;;;;;;;3.60;2.67;;;30.30;63.50;;;;;;5054561;28;20469;-75
2022/06/14 12:42:28;;;;;;;3.07;2.17;;;30.50;66.70;;;;;;5053578;28;20472;-74
2022/06/14 12:45:01;;;;;;;2.97;2.33;;;30.60;66.30;;;;;;5054557;28;20457;-73
2022/06/14 12:47:40;;;;;;;2.93;2.10;;;30.70;63.40;;;;;;5054582;28;20476;-70
2022/06/14 12:50:14;;;;;;;3.23;2.10;;;30.60;65.30;;;;;;5054563;28;20453;-64
2022/06/14 12:52:48;;;;;;;3.90;2.37;;;30.80;63.60;;;;;;5053662;28;20544;-65
2022/06/14 12:55:22;;;;;;;5.00;2.57;;;31.00;64.10;;;;;;5054419;28;20458;-63
2022/06/14 12:58:14;;;;;;;4.80;2.63;;;31.10;65.10;;;;;;5053376;28;20821;-63
2022/06/14 13:00:46;;;;;;;4.13;2.73;;;31.40;63.30;;;;;;5054460;28;20485;-64
2022/06/14 13:03:28;;;;;;;4.47;2.70;;;31.50;60.50;;;;;;5054478;28;20807;-65
2022/06/14 13:06:01;;;;;;;3.03;2.40;;;31.60;60.90;;;;;;5054488;28;20452;-64
2022/06/14 13:08:38;;;;;;;3.30;2.30;;;31.60;64.60;;;;;;5054405;28;20461;-65
2022/06/14 13:11:16;;;;;;;3.23;2.30;;;31.10;64.50;;;;;;5053020;28;20472;-64
2022/06/14 13:14:07;;;;;;;3.20;2.43;;;31.40;63.90;;;;;;5053998;28;20472;-64
2022/06/14 13:16:48;;;;;;;4.10;2.57;;;31.40;63.70;;;;;;5054166;28;20465;-64
2022/06/14 13:19:23;;;;;;;3.93;2.33;;;31.70;64.60;;;;;;5053788;28;20476;-65
2022/06/14 13:22:14;;;;;;;3.80;2.70;;;31.90;64.00;;;;;;5053995;28;20504;-63
2022/06/14 13:24:51;;;;;;;3.73;2.30;;;31.90;64.30;;;;;;5052769;28;20465;-64
2022/06/14 13:27:37;;;;;;;3.70;2.70;;;31.80;64.90;;;;;;5054049;28;20488;-64
2022/06/14 13:30:15;;;;;;;3.67;2.57;;;32.00;62.50;;;;;;5053853;28;20457;-63
2022/06/14 13:33:02;;;;;;;3.27;2.27;;;31.90;62.50;;;;;;5053586;28;20456;-65
2022/06/14 13:35:52;;;;;;;3.90;2.77;;;32.20;63.20;;;;;;5053673;28;20601;-68
2022/06/14 13:38:26;;;;;;;4.33;2.50;;;32.10;60.90;;;;;;5053621;28;20453;-69
2022/06/14 13:40:56;;;;;;;4.43;2.70;;;31.80;65.80;;;;;;5053508;28;20490;-67
2022/06/14 13:43:32;;;;;;;3.30;2.40;;;31.80;64.70;;;;;;5053479;28;20453;-65
2022/06/14 13:46:05;;;;;;;3.50;2.40;;;32.10;62.10;;;;;;5053344;28;20457;-71
2022/06/14 13:48:38;;;;;;;9.50;2.50;;;32.30;63.80;;;;;;5053459;28;20454;-69
2022/06/14 13:51:25;;;;;;;4.63;2.73;;;32.20;62.20;;;;;;5053146;28;20496;-70